Time;durP1;ratioP1;P1;durP2;ratioP2;P2;SDS_P1;SDS_P2;PMS_P1;PMS_P2;Temp;Humidity;BMP_temperature;BMP_pressure;BME280_temperature;BME280_humidity;BME280_pressure;Samples;Min_cycle;Max_cycle;Signal;HPM_P1;HPM_P2
2023/05/02 00:01:16;;;;;;;10.65;5.67;;;;;;;7.76;50.89;100335.52;1758867;81;25645;-54
2023/05/02 00:03:43;;;;;;;10.55;5.37;;;;;;;7.74;51.20;100336.36;1758830;81;25679;-57
2023/05/02 00:06:10;;;;;;;10.23;5.60;;;;;;;7.71;51.27;100324.02;1758934;81;25584;-57
2023/05/02 00:08:37;;;;;;;15.13;8.63;;;;;;;7.67;51.43;100327.84;1758906;81;28207;-56
2023/05/02 00:11:04;;;;;;;13.43;6.90;;;;;;;7.60;51.45;100317.97;1733629;81;25422;-56
2023/05/02 00:13:30;;;;;;;12.53;5.53;;;;;;;7.59;51.68;100325.22;1758873;81;25456;-56
2023/05/02 00:15:57;;;;;;;10.38;5.47;;;;;;;7.58;52.01;100321.50;1758850;81;25641;-57
2023/05/02 00:18:23;;;;;;;10.10;5.95;;;;;;;7.56;51.98;100312.36;1758856;81;25564;-54
2023/05/02 00:20:50;;;;;;;12.75;5.83;;;;;;;7.53;52.04;100314.28;1758772;81;27658;-54
2023/05/02 00:23:17;;;;;;;10.08;5.67;;;;;;;7.50;52.28;100313.50;1758833;81;25569;-56
2023/05/02 00:25:45;;;;;;;37.58;34.15;;;;;;;7.47;52.35;100312.73;1758894;81;25574;-55
2023/05/02 00:28:12;;;;;;;51.37;47.38;;;;;;;7.45;52.44;100308.18;1758828;81;25588;-58
2023/05/02 00:30:46;;;;;;;76.65;70.92;;;;;;;7.43;52.56;100309.02;1758847;81;25620;-57
2023/05/02 00:33:13;;;;;;;85.57;79.07;;;;;;;7.41;52.65;100305.27;1758971;81;27715;-54
2023/05/02 00:35:40;;;;;;;84.90;78.72;;;;;;;7.41;52.72;100300.44;1758787;81;25400;-58
2023/05/02 00:38:06;;;;;;;85.25;79.27;;;;;;;7.39;52.87;100300.72;1758897;81;25619;-57
2023/05/02 00:40:47;;;;;;;83.22;77.12;;;;;;;7.40;52.81;100302.86;1758788;81;25563;-55
2023/05/02 00:43:15;;;;;;;66.67;61.58;;;;;;;7.41;52.96;100305.82;1758877;81;25398;-56
2023/05/02 00:45:43;;;;;;;10.95;5.67;;;;;;;7.39;53.21;100300.72;1758853;81;27474;-57
2023/05/02 00:48:10;;;;;;;11.25;4.85;;;;;;;7.40;53.48;100298.82;1758775;81;25903;-53
2023/05/02 00:50:40;;;;;;;45.45;41.92;;;;;;;7.37;53.33;100297.52;1758864;81;25420;-56
2023/05/02 00:53:09;;;;;;;12.23;5.50;;;;;;;7.36;53.25;100299.16;1758113;81;25831;-55
2023/05/02 00:55:36;;;;;;;84.32;78.35;;;;;;;7.35;53.29;100293.50;1758888;81;25603;-56
2023/05/02 00:58:15;;;;;;;11.45;5.62;;;;;;;7.31;53.23;100287.10;1758822;81;27518;-56
2023/05/02 01:01:17;;;;;;;81.70;75.85;;;;;;;7.32;53.40;100287.34;1758813;81;25553;-57
2023/05/02 01:04:02;;;;;;;83.47;77.32;;;;;;;7.31;53.50;100283.06;1697333;84;25431;-56
2023/05/02 01:07:00;;;;;;;80.45;74.72;;;;;;;7.29;53.81;100287.39;1697352;84;25686;-58
2023/05/02 01:09:53;;;;;;;41.18;38.28;;;;;;;7.28;53.65;100278.49;1697429;84;25463;-56
2023/05/02 01:12:35;;;;;;;54.08;49.55;;;;;;;7.29;53.61;100273.38;1696786;84;27447;-57
2023/05/02 01:15:07;;;;;;;84.37;78.62;;;;;;;7.33;53.55;100280.89;1697184;84;25792;-58
2023/05/02 01:17:36;;;;;;;83.92;77.82;;;;;;;7.31;53.82;100273.65;1697310;84;25540;-58
2023/05/02 01:20:12;;;;;;;11.57;11.00;;;;;;;7.30;53.88;100274.17;1697240;84;25572;-54
2023/05/02 01:22:39;;;;;;;20.68;17.20;;;;;;;;;;1696846;84;25567;-58
2023/05/02 01:25:19;;;;;;;26.12;24.40;;;;;;;;;;1697442;84;27460;-58
2023/05/02 01:27:53;;;;;;;39.98;36.80;;;;;;;;;;1697322;84;25465;-58
2023/05/02 01:30:21;;;;;;;12.10;11.48;;;;;;;;;;1697372;84;25385;-57
2023/05/02 01:32:49;;;;;;;9.70;9.28;;;;;;;;;;1697539;84;26125;-56
2023/05/02 01:35:17;;;;;;;5.92;5.72;;;;;;;;;;1697614;84;25526;-56
2023/05/02 01:37:46;;;;;;;38.20;35.67;;;;;;;;;;1697433;84;27563;-55
2023/05/02 01:40:16;;;;;;;7.00;6.70;;;;;;;;;;1730607;81;25463;-58
2023/05/02 01:42:44;;;;;;;5.33;5.12;;;;;;;;;;1758599;81;25523;-57
2023/05/02 01:45:12;;;;;;;12.30;5.33;;;;;;;;;;1758959;81;25515;-56
2023/05/02 01:47:40;;;;;;;10.95;5.42;;;;;;;;;;1759068;81;25346;-57
2023/05/02 01:50:11;;;;;;;12.13;5.03;;;;;;;;;;1758952;81;29543;-57
2023/05/02 01:52:38;;;;;;;10.65;5.40;;;;;;;;;;1758917;81;25649;-57
2023/05/02 01:55:08;;;;;;;10.35;5.03;;;;;;;;;;1758988;81;25312;-57
2023/05/02 01:57:37;;;;;;;9.53;4.70;;;;;;;;;;1759158;81;25947;-57
2023/05/02 02:00:05;;;;;;;9.83;4.47;;;;;;;;;;1759221;81;25512;-58
2023/05/02 02:02:34;;;;;;;8.37;5.40;;;;;;;;;;1759197;81;27356;-56
2023/05/02 02:05:04;;;;;;;9.13;4.87;;;;;;;;;;1758984;81;25610;-58
2023/05/02 02:07:31;;;;;;;7.67;4.80;;;;;;;;;;1758968;81;25613;-57
2023/05/02 02:09:59;;;;;;;9.80;4.42;;;;;;;;;;1758954;81;26241;-58
2023/05/02 02:12:46;;;;;;;7.35;4.67;;;;;;;;;;1759008;81;25523;-55
2023/05/02 02:15:22;;;;;;;7.62;4.75;;;;;;;;;;1758985;81;27426;-57
2023/05/02 02:17:54;;;;;;;8.63;4.58;;;;;;;;;;1758552;81;25429;-56
2023/05/02 02:20:21;;;;;;;9.08;4.37;;;;;;;;;;1758592;81;25309;-56
2023/05/02 02:22:50;;;;;;;15.05;5.03;;;;;;;;;;1758818;81;25564;-55
2023/05/02 02:25:17;;;;;;;13.40;4.22;;;;;;;;;;1758987;81;25529;-56
2023/05/02 02:27:45;;;;;;;16.32;5.47;;;;;;;;;;1758920;81;27407;-56
2023/05/02 02:30:12;;;;;;;11.35;4.62;;;;;;;;;;1733155;81;25401;-55
2023/05/02 02:32:39;;;;;;;8.50;4.67;;;;;;;;;;1758925;81;25286;-55
2023/05/02 02:35:08;;;;;;;7.80;4.00;;;;;;;;;;1758903;81;25477;-55
2023/05/02 02:37:42;;;;;;;7.40;4.35;;;;;;;;;;1758990;81;25552;-55
2023/05/02 02:40:13;;;;;;;10.55;4.35;;;;;;;;;;1758893;81;29647;-54
2023/05/02 02:43:01;;;;;;;9.83;4.50;;;;;;;;;;1758239;81;25489;-54
2023/05/02 02:45:44;;;;;;;71.72;66.55;;;;;;;;;;1759153;81;25386;-58
2023/05/02 02:48:21;;;;;;;10.48;8.78;;;;;;;;;;1757099;81;25517;-54
2023/05/02 02:51:11;;;;;;;7.50;4.27;;;;;;;;;;1758621;81;25346;-54
2023/05/02 02:53:53;;;;;;;63.42;59.05;;;;;;;;;;1759009;81;27527;-54
2023/05/02 02:56:29;;;;;;;84.07;78.07;;;;;;;;;;1757751;81;25418;-57
2023/05/02 02:59:00;;;;;;;82.30;76.25;;;;;;;;;;1758924;81;25366;-57
2023/05/02 03:01:29;;;;;;;82.33;76.67;;;;;;;;;;1758881;81;25554;-57
2023/05/02 03:03:57;;;;;;;79.90;74.50;;;;;;;;;;1733345;81;25547;-57
2023/05/02 03:06:26;;;;;;;79.80;74.30;;;;;;;;;;1758918;81;27411;-57
2023/05/02 03:08:53;;;;;;;57.23;53.43;;;;;;;;;;1759095;81;25295;-56
2023/05/02 03:11:20;;;;;;;80.67;74.72;;;;;;;;;;1758863;81;25524;-58
2023/05/02 03:13:47;;;;;;;82.72;76.72;;;;;;;;;;1758896;81;25534;-58
2023/05/02 03:16:24;;;;;;;9.23;8.63;;;;;;;;;;1758911;81;25532;-58
2023/05/02 03:18:51;;;;;;;6.17;3.52;;;;;;;;;;1757906;81;27467;-59
2023/05/02 03:21:18;;;;;;;7.30;3.95;;;;;;;;;;1758808;81;25673;-57
2023/05/02 03:23:45;;;;;;;8.85;4.20;;;;;;;;;;1764225;81;25288;-57
2023/05/02 03:26:12;;;;;;;10.43;4.42;;;;;;;;;;1764823;81;25685;-58
2023/05/02 03:28:40;;;;;;;6.97;4.03;;;;;;;;;;1772315;81;25364;-56
2023/05/02 03:31:07;;;;;;;9.05;3.95;;;;;;;;;;1758342;81;27368;-57
2023/05/02 03:33:34;;;;;;;5.60;3.77;;;;;;;;;;1758269;81;25655;-58
2023/05/02 03:36:02;;;;;;;9.70;4.03;;;;;;;;;;1772461;81;25397;-55
2023/05/02 03:38:29;;;;;;;6.90;4.22;;;;;;;;;;1783377;80;25531;-54
2023/05/02 03:40:57;;;;;;;8.88;4.20;;;;;;;;;;1783512;80;25557;-55
2023/05/02 03:43:24;;;;;;;6.53;4.10;;;;;;;;;;1783467;80;27427;-58
2023/05/02 03:45:51;;;;;;;13.18;4.70;;;;;;;;;;1761362;80;25721;-57
2023/05/02 03:48:18;;;;;;;8.10;3.92;;;;;;;;;;1783445;80;25346;-56
2023/05/02 03:50:45;;;;;;;10.90;4.30;;;;;;;;;;1783455;80;25501;-57
2023/05/02 03:53:13;;;;;;;12.43;4.25;;;;;;;;;;1783463;80;25296;-54
2023/05/02 03:55:40;;;;;;;9.23;4.00;;;;;;;;;;1783565;80;27462;-57
2023/05/02 03:58:09;;;;;;;7.45;3.90;;;;;;;;;;1783379;80;25372;-57
2023/05/02 04:00:37;;;;;;;9.53;4.15;;;;;;;;;;1783361;80;25277;-56
2023/05/02 04:03:04;;;;;;;8.05;3.90;;;;;;;;;;1783387;80;25499;-56
2023/05/02 04:05:31;;;;;;;13.20;4.00;;;;;;;;;;1783499;80;25306;-58
2023/05/02 04:07:58;;;;;;;14.20;4.42;;;;;;;;;;1783457;80;25821;-57
2023/05/02 04:10:25;;;;;;;7.78;4.28;;;;;;;;;;1783338;80;25278;-54
2023/05/02 04:12:52;;;;;;;7.40;4.10;;;;;;;;;;1783418;80;25399;-56
2023/05/02 04:15:20;;;;;;;7.62;4.35;;;;;;;;;;1783404;80;25489;-53
2023/05/02 04:17:47;;;;;;;7.55;3.92;;;;;;;;;;1783509;80;25512;-56
2023/05/02 04:20:14;;;;;;;7.85;4.28;;;;;;;;;;1783391;80;27396;-56
2023/05/02 04:22:41;;;;;;;7.90;4.28;;;;;;;;;;1780151;80;25480;-56
2023/05/02 04:25:08;;;;;;;6.53;3.90;;;;;;;;;;1773264;80;25358;-57
2023/05/02 04:27:35;;;;;;;8.75;4.83;;;;;;;;;;1773184;80;25491;-57
2023/05/02 04:30:01;;;;;;;14.95;13.62;;;;;;;;;;1773295;80;25459;-57
2023/05/02 04:32:28;;;;;;;82.78;77.03;;;;;;;;;;1773304;80;28075;-56
2023/05/02 04:34:56;;;;;;;80.67;75.05;;;;;;;;;;1773254;80;25436;-56
2023/05/02 04:37:23;;;;;;;77.75;72.35;;;;;;;;;;1773330;80;25501;-53
2023/05/02 04:39:50;;;;;;;75.52;70.42;;;;;;;;;;1773154;80;27770;-57
2023/05/02 04:42:17;;;;;;;83.03;77.03;;;;;;;;;;1773259;80;25525;-57
2023/05/02 04:44:44;;;;;;;79.85;74.25;;;;;;;;;;1773343;80;27317;-57
2023/05/02 04:47:11;;;;;;;82.25;76.42;;;;;;;;;;1773130;80;25507;-54
2023/05/02 04:49:38;;;;;;;81.02;75.52;;;;;;;;;;1773239;80;25514;-54
2023/05/02 04:52:05;;;;;;;80.90;75.25;;;;;;;;;;1773199;80;25648;-55
2023/05/02 04:54:33;;;;;;;77.78;72.50;;;;;;;;;;1773245;80;25451;-54
2023/05/02 04:57:02;;;;;;;78.37;73.10;;;;;;;;;;1773238;80;25867;-53
2023/05/02 04:59:29;;;;;;;84.85;78.70;;;;;;;;;;1773358;80;34675;-53
2023/05/02 05:01:56;;;;;;;82.95;77.27;;;;;;;;;;1773512;80;25341;-54
2023/05/02 05:04:24;;;;;;;82.08;76.28;;;;;;;;;;1773337;80;25582;-55
2023/05/02 05:06:51;;;;;;;78.78;73.28;;;;;;;;;;1773419;80;25452;-58
2023/05/02 05:09:18;;;;;;;75.47;70.57;;;;;;;;;;1773458;80;27310;-57
2023/05/02 05:11:45;;;;;;;75.45;69.90;;;;;;;;;;1773323;80;25732;-57
2023/05/02 05:14:12;;;;;;;77.87;72.78;;;;;;;;;;1773400;80;25290;-57
2023/05/02 05:16:39;;;;;;;80.05;74.77;;;;;;;;;;1773440;80;25688;-56
2023/05/02 05:19:06;;;;;;;75.45;70.35;;;;;;;;;;1773344;80;25532;-56
2023/05/02 05:21:33;;;;;;;81.32;75.83;;;;;;;;;;1773377;80;27382;-56
2023/05/02 05:24:01;;;;;;;77.82;72.62;;;;;;;;;;1773217;80;25530;-56
2023/05/02 05:26:28;;;;;;;80.65;74.35;;;;;;;;;;1773347;80;25349;-57
2023/05/02 05:28:55;;;;;;;14.65;13.85;;;;;;;;;;1773693;80;25594;-56
2023/05/02 05:31:23;;;;;;;20.70;19.52;;;;;;;;;;1773430;80;25313;-57
2023/05/02 05:33:50;;;;;;;4.08;3.90;;;;;;;;;;1773399;80;28069;-57
2023/05/02 05:36:17;;;;;;;4.35;4.10;;;;;;;;;;1773455;80;25529;-59
2023/05/02 05:38:45;;;;;;;52.10;48.13;;;;;;;;;;1773373;80;25312;-58
2023/05/02 05:41:12;;;;;;;76.97;71.83;;;;;;;;;;1773312;80;27655;-57
2023/05/02 05:43:39;;;;;;;9.60;9.10;;;;;;;;;;1773376;80;25292;-57
2023/05/02 05:46:06;;;;;;;11.33;10.73;;;;;;;;;;1773379;80;27449;-57
2023/05/02 05:48:33;;;;;;;80.32;74.07;;;;;;;;;;1773329;80;25312;-57
2023/05/02 05:51:04;;;;;;;5.00;4.80;;;;;;;;;;1773473;80;25293;-57
2023/05/02 05:53:31;;;;;;;5.78;5.58;;;;;;;;;;1773111;80;26080;-56
2023/05/02 05:55:59;;;;;;;2.98;2.87;;;;;;;;;;1773508;80;25322;-58
2023/05/02 05:58:25;;;;;;;9.75;9.30;;;;;;;;;;1773581;80;27259;-55
2023/05/02 06:00:52;;;;;;;78.60;73.60;;;;;;;;;;1773202;80;29772;-57
2023/05/02 06:03:19;;;;;;;76.47;71.50;;;;;;;;;;1773372;80;25532;-56
2023/05/02 06:05:45;;;;;;;4.97;4.78;;;;;;;;;;1773479;80;26154;-58
2023/05/02 06:10:43;;;;;;;82.35;76.25;;;;;;;12.71;50.74;100197.34;1925017;74;35083;-58
2023/05/02 06:13:10;;;;;;;81.67;76.25;;;;;;;12.80;50.53;100193.81;1894892;75;25423;-54
2023/05/02 06:15:36;;;;;;;76.47;71.22;;;;;;;12.91;50.17;100186.90;1894830;75;27514;-57
2023/05/02 06:18:03;;;;;;;82.95;77.20;;;;;;;12.95;49.95;100166.68;1894823;75;25309;-56
2023/05/02 06:20:30;;;;;;;7.22;4.35;;;;;;;13.18;49.71;100198.43;1822344;78;25730;-58
2023/05/02 06:22:57;;;;;;;12.63;6.42;;;;;;;13.33;49.75;100197.88;1855606;77;25489;-58
2023/05/02 06:25:24;;;;;;;81.30;75.87;;;;;;;13.48;49.54;100197.84;1822159;78;25128;-57
2023/05/02 06:27:52;;;;;;;82.02;76.47;;;;;;;13.64;49.22;100201.56;1855638;77;27689;-59
2023/05/02 06:30:20;;;;;;;82.72;77.00;;;;;;;13.80;49.16;100194.17;1821959;78;25723;-58
2023/05/02 06:32:48;;;;;;;81.42;76.12;;;;;;;14.01;48.91;100203.10;1855653;77;25288;-58
2023/05/02 06:35:16;;;;;;;83.92;77.95;;;;;;;14.21;48.66;100196.58;1822071;78;25507;-57
2023/05/02 06:37:43;;;;;;;67.55;62.40;;;;;;;14.42;48.59;100197.09;1855804;77;25503;-59
2023/05/02 06:40:35;;;;;;;12.00;4.62;;;;;;;14.72;48.82;100203.18;1855773;77;27362;-58
2023/05/02 06:43:04;;;;;;;11.12;5.70;;;;;;;14.99;48.15;100203.08;1697989;84;25361;-57
2023/05/02 06:45:31;;;;;;;11.60;4.40;;;;;;;15.30;47.55;100213.37;1750444;82;25375;-59
2023/05/02 06:47:59;;;;;;;11.83;5.60;;;;;;;15.59;47.45;100208.78;1727152;83;25707;-58
2023/05/02 06:50:26;;;;;;;11.15;5.25;;;;;;;15.82;46.91;100208.31;1750300;82;25415;-58
2023/05/02 06:52:53;;;;;;;10.98;5.45;;;;;;;15.91;45.97;100201.34;1727061;83;27458;-58
2023/05/02 06:55:21;;;;;;;9.48;4.50;;;;;;;16.01;46.00;100204.36;1750177;82;25559;-59
2023/05/02 06:57:51;;;;;;;77.97;72.62;;;;;;;16.20;45.89;100211.09;1761042;81;25366;-58
2023/05/02 07:00:23;;;;;;;78.92;73.67;;;;;;;16.38;46.13;100197.94;1760992;80;25430;-58
2023/05/02 07:02:53;;;;;;;77.87;73.07;;;;;;;16.68;45.46;100194.19;1760565;80;25340;-58
2023/05/02 07:05:22;;;;;;;73.75;68.45;;;;;;;16.86;44.72;100208.33;1760979;81;27408;-58
2023/05/02 07:07:52;;;;;;;78.92;73.83;;;;;;;17.03;44.75;100205.80;1760657;81;25513;-59
2023/05/02 07:10:19;;;;;;;35.90;33.40;;;;;;;17.18;43.67;100199.52;1760977;81;25472;-55
2023/05/02 07:12:46;;;;;;;62.20;58.33;;;;;;;17.27;43.90;100195.80;1760869;81;27315;-57
2023/05/02 07:15:15;;;;;;;72.95;68.20;;;;;;;17.39;43.71;100201.14;1760969;81;25413;-56
2023/05/02 07:17:46;;;;;;;44.20;40.90;;;;;;;17.54;43.63;100209.86;1761108;81;27489;-56
2023/05/02 07:20:14;;;;;;;65.28;60.67;;;;;;;17.66;43.10;100204.05;1827741;76;25516;-55
2023/05/02 07:22:42;;;;;;;6.97;4.53;;;;;;;17.79;43.22;100201.95;1885901;76;34577;-57
2023/05/02 07:25:10;;;;;;;9.38;4.53;;;;;;;18.07;43.27;100200.40;1885748;76;25422;-57
2023/05/02 07:27:38;;;;;;;73.20;68.45;;;;;;;18.34;41.91;100206.77;1886057;76;25316;-56
2023/05/02 07:30:08;;;;;;;7.80;4.22;;;;;;;18.49;42.19;100206.45;1885718;76;27373;-56
2023/05/02 07:32:36;;;;;;;76.10;70.92;;;;;;;18.71;40.99;100225.97;1885675;76;25440;-55
2023/05/02 07:35:05;;;;;;;38.48;35.92;;;;;;;18.81;40.60;100215.77;1885721;76;25389;-58
2023/05/02 07:37:34;;;;;;;;;;;;;;;18.97;41.05;100208.23;1888528;76;25464;-59
2023/05/02 07:40:03;;;;;;;74.55;69.70;;;;;;;19.19;40.83;100205.23;1885819;76;25340;-58
2023/05/02 07:42:32;;;;;;;6.87;4.15;;;;;;;19.34;38.93;100215.84;1885901;76;27382;-58
2023/05/02 07:45:00;;;;;;;74.75;70.32;;;;;;;19.43;39.86;100212.82;1885668;76;25427;-58
2023/05/02 07:47:28;;;;;;;74.05;69.17;;;;;;;19.66;39.30;100200.37;1885834;76;25443;-58
2023/05/02 07:49:55;;;;;;;72.20;67.43;;;;;;;19.78;39.29;100204.86;1811006;79;25460;-58
2023/05/02 07:52:22;;;;;;;49.75;46.60;;;;;;;20.00;39.75;100208.64;1810879;79;25344;-57
2023/05/02 07:54:51;;;;;;;69.42;65.28;;;;;;;20.19;38.49;100209.63;1815098;79;27351;-56
2023/05/02 07:57:18;;;;;;;5.20;3.85;;;;;;;20.20;38.17;100204.36;1815018;79;25776;-55
2023/05/02 07:59:46;;;;;;;8.40;3.47;;;;;;;20.34;38.65;100198.41;1815123;79;25325;-58
2023/05/02 08:02:13;;;;;;;7.85;3.58;;;;;;;20.65;38.97;100203.81;1815080;78;25873;-55
2023/05/02 08:04:40;;;;;;;27.50;25.35;;;;;;;20.79;37.60;100213.56;1815109;79;25321;-56
2023/05/02 08:07:08;;;;;;;75.03;70.37;;;;;;;20.86;37.29;100210.09;1815137;78;27325;-57
2023/05/02 08:09:35;;;;;;;7.53;3.92;;;;;;;21.01;37.03;100200.77;1814998;79;25368;-57
2023/05/02 08:12:02;;;;;;;9.70;3.62;;;;;;;21.06;36.73;100207.86;1815063;79;25492;-58
2023/05/02 08:14:31;;;;;;;18.87;17.32;;;;;;;21.14;36.43;100208.70;1815080;79;25452;-59
2023/05/02 08:16:59;;;;;;;7.60;3.12;;;;;;;;;;1815093;79;25479;-60
2023/05/02 08:19:27;;;;;;;4.78;2.62;;;;;;;21.40;35.16;100200.23;1815125;79;27693;-58
2023/05/02 08:21:55;;;;;;;6.25;3.22;;;;;;;21.52;35.85;100195.58;1815022;78;25364;-58
2023/05/02 08:24:22;;;;;;;10.13;3.65;;;;;;;21.79;35.78;100187.83;1815244;79;25370;-58
2023/05/02 08:26:50;;;;;;;5.70;3.27;;;;;;;21.89;34.35;100195.34;1815038;79;25459;-53
2023/05/02 08:29:17;;;;;;;6.60;3.08;;;;;;;21.97;35.12;100192.03;1815072;79;25454;-59
2023/05/02 08:31:45;;;;;;;4.50;2.62;;;;;;;22.23;35.08;100208.02;1815092;78;27457;-60
2023/05/02 08:34:12;;;;;;;6.97;3.12;;;;;;;22.40;34.51;100201.78;1814991;79;25510;-62
2023/05/02 08:36:40;;;;;;;4.78;3.35;;;;;;;22.60;34.42;100209.08;1815059;78;25451;-62
2023/05/02 08:39:08;;;;;;;7.55;3.42;;;;;;;22.60;32.96;100211.06;1815082;79;25497;-63
2023/05/02 08:41:36;;;;;;;6.08;3.20;;;;;;;22.67;33.81;100210.45;1814970;79;25333;-60
2023/05/02 08:44:06;;;;;;;5.55;3.25;;;;;;;22.70;33.94;100215.19;1815117;79;28127;-59
2023/05/02 08:46:39;;;;;;;6.12;3.40;;;;;;;22.94;34.25;100209.47;1815005;79;25514;-63
2023/05/02 08:49:10;;;;;;;9.25;3.22;;;;;;;23.19;34.22;100208.69;1792507;79;25438;-63
2023/05/02 08:51:39;;;;;;;7.37;3.35;;;;;;;23.42;33.00;100217.88;1810669;79;25477;-63
2023/05/02 08:54:09;;;;;;;6.53;3.00;;;;;;;23.43;32.91;100217.31;1781908;80;25540;-64
2023/05/02 08:56:37;;;;;;;;;;;;;;;23.44;33.74;100216.87;1813377;79;27363;-64
2023/05/02 08:59:07;;;;;;;7.70;3.00;;;;;;;23.76;34.07;100223.50;1762942;81;25366;-64
2023/05/02 09:01:37;;;;;;;8.83;8.03;;;;;;;24.13;33.37;100210.52;1810744;79;25426;-63
2023/05/02 09:04:04;;;;;;;8.85;8.05;;;;;;;24.66;33.61;100222.42;1782885;80;25457;-64
2023/05/02 09:06:33;;;;;;;10.00;3.37;;;;;;;25.14;32.93;100218.05;1810920;79;25518;-64
2023/05/02 09:09:02;;;;;;;61.70;58.17;;;;;;;25.29;31.56;100212.58;1782542;80;27386;-65
2023/05/02 09:11:30;;;;;;;77.23;72.40;;;;;;;25.10;30.90;100219.47;1810934;79;25445;-66
2023/05/02 09:14:02;;;;;;;69.23;65.13;;;;;;;25.11;31.89;100203.64;1810538;79;25501;-64
2023/05/02 09:16:28;;;;;;;36.77;34.38;;;;;;;25.35;31.63;100204.61;1810108;79;25516;-64
2023/05/02 09:18:58;;;;;;;68.02;64.15;;;;;;;25.66;31.45;100205.44;1810929;79;25276;-63
2023/05/02 09:21:36;;;;;;;68.00;63.68;;;;;;;25.78;29.80;100205.50;1810792;79;27901;-64
2023/05/02 09:24:18;;;;;;;52.80;49.65;;;;;;;25.49;29.51;100214.75;1810359;79;25368;-65
2023/05/02 09:27:04;;;;;;;66.33;62.53;;;;;;;25.32;29.88;100211.77;1810806;79;25500;-64
2023/05/02 09:29:37;;;;;;;67.72;63.92;;;;;;;25.39;31.06;100199.02;1810735;79;25890;-65
2023/05/02 09:32:06;;;;;;;67.90;63.92;;;;;;;25.58;30.52;100219.80;1810817;79;25551;-65
2023/05/02 09:34:36;;;;;;;68.83;64.92;;;;;;;25.79;30.83;100207.05;1810905;79;27437;-64
2023/05/02 09:37:04;;;;;;;69.53;65.32;;;;;;;25.82;30.01;100220.08;1810707;79;25493;-65
2023/05/02 09:39:32;;;;;;;7.95;5.47;;;;;;;25.48;30.08;100213.95;1810836;79;25279;-59
2023/05/02 09:42:01;;;;;;;10.58;9.78;;;;;;;25.08;30.01;100238.47;1810740;78;25516;-58
2023/05/02 09:44:38;;;;;;;14.40;13.22;;;;;;;24.75;30.69;100228.88;1791861;80;25523;-57
2023/05/02 09:47:08;;;;;;;56.40;52.98;;;;;;;24.56;30.81;100224.67;1791859;80;27362;-57
2023/05/02 09:49:45;;;;;;;42.15;39.05;;;;;;;24.51;32.00;100234.15;1791669;80;25342;-58
2023/05/02 09:52:20;;;;;;;4.85;3.77;;;;;;;24.51;31.19;100234.15;1811359;79;25342;-58
2023/05/02 09:54:52;;;;;;;5.87;3.60;;;;;;;24.49;31.82;100238.53;1791866;80;27256;-58
2023/05/02 09:57:19;;;;;;;38.23;35.98;;;;;;;24.67;31.84;100241.98;1811352;79;25333;-58
2023/05/02 09:59:57;;;;;;;70.95;67.05;;;;;;;24.63;31.00;100242.59;1811335;79;27373;-59
2023/05/02 10:02:25;;;;;;;69.22;65.15;;;;;;;24.74;32.13;100229.48;1811214;79;25498;-58
2023/05/02 10:04:58;;;;;;;61.37;57.65;;;;;;;24.88;31.11;100242.39;1784131;79;25517;-59
2023/05/02 10:07:26;;;;;;;7.17;4.10;;;;;;;24.54;31.48;100249.16;1811264;79;25465;-59
2023/05/02 10:09:57;;;;;;;9.80;4.40;;;;;;;24.21;31.75;100252.12;1791799;80;25294;-60
2023/05/02 10:12:27;;;;;;;51.15;48.02;;;;;;;23.85;32.08;100252.30;1811302;79;27389;-61
2023/05/02 10:14:59;;;;;;;49.80;46.58;;;;;;;23.59;32.39;100257.66;1811015;79;25466;-59
2023/05/02 10:17:30;;;;;;;7.30;4.90;;;;;;;23.28;32.86;100258.72;1791865;80;25520;-62
2023/05/02 10:20:07;;;;;;;7.83;5.08;;;;;;;23.14;33.57;100268.41;1791748;80;26232;-62
2023/05/02 10:22:36;;;;;;;12.10;5.45;;;;;;;23.06;33.84;100266.23;1791818;80;25532;-61
2023/05/02 10:25:05;;;;;;;40.40;37.90;;;;;;;23.09;34.52;100270.18;1811428;79;27366;-61
2023/05/02 10:27:33;;;;;;;72.80;68.35;;;;;;;23.17;34.27;100266.20;1811213;79;25500;-61
2023/05/02 10:30:03;;;;;;;73.20;69.00;;;;;;;23.38;34.32;100270.13;1811198;79;25325;-60
2023/05/02 10:32:33;;;;;;;68.28;64.32;;;;;;;23.59;34.72;100271.47;1811082;79;25551;-62
2023/05/02 10:35:07;;;;;;;65.83;61.65;;;;;;;24.20;34.51;100274.02;1811302;79;25427;-62
2023/05/02 10:37:38;;;;;;;7.75;5.28;;;;;;;24.23;33.15;100282.89;1811285;79;27343;-64
2023/05/02 10:40:11;;;;;;;73.78;69.12;;;;;;;23.89;32.95;100272.18;1791707;80;25493;-62
2023/05/02 10:42:44;;;;;;;64.22;60.15;;;;;;;23.49;33.54;100280.56;1810963;79;25328;-62
2023/05/02 10:45:33;;;;;;;73.78;69.27;;;;;;;23.28;34.17;100284.16;1810763;79;25288;-60
2023/05/02 10:48:24;;;;;;;8.75;5.35;;;;;;;23.12;34.13;100290.05;1810763;79;25297;-61
2023/05/02 10:51:02;;;;;;;9.58;5.47;;;;;;;22.83;34.56;100291.42;1782825;80;27438;-60
2023/05/02 10:53:43;;;;;;;11.53;5.80;;;;;;;22.52;35.00;100288.80;1810854;79;25336;-61
2023/05/02 10:56:20;;;;;;;8.05;6.12;;;;;;;22.29;35.62;100291.31;1782004;80;25302;-61
2023/05/02 10:58:52;;;;;;;20.43;18.80;;;;;;;22.07;36.09;100294.55;1810834;79;25360;-61
2023/05/02 11:01:32;;;;;;;8.78;6.22;;;;;;;21.95;36.71;100299.80;1810898;79;25533;-63
2023/05/02 11:04:04;;;;;;;76.77;71.95;;;;;;;21.80;37.23;100316.83;1810908;79;27927;-64
2023/05/02 11:06:39;;;;;;;24.57;22.58;;;;;;;21.57;37.50;100302.53;1810778;79;25291;-62
2023/05/02 11:09:28;;;;;;;14.33;12.00;;;;;;;21.42;37.90;100323.06;1810936;79;25350;-61
2023/05/02 11:11:56;;;;;;;17.95;13.13;;;;;;;21.21;38.31;100320.13;1713918;83;26407;-63
2023/05/02 11:14:41;;;;;;;30.17;21.50;;;;;;;21.01;38.76;100332.75;1688966;85;25422;-64
2023/05/02 11:17:10;;;;;;;94.42;87.02;;;;;;;20.73;39.15;100344.25;1688370;85;26463;-62
2023/05/02 11:19:57;;;;;;;33.20;25.20;;;;;;;20.40;39.80;100348.58;1664923;85;25711;-62
2023/05/02 11:22:33;;;;;;;20.70;13.85;;;;;;;20.24;40.15;100352.87;1688010;85;25517;-63
2023/05/02 11:25:01;;;;;;;13.08;9.38;;;;;;;20.02;40.56;100353.17;1687968;85;25492;-60
2023/05/02 11:27:40;;;;;;;11.30;6.65;;;;;;;19.82;40.73;100355.27;1713459;83;25461;-64
2023/05/02 11:30:09;;;;;;;;;;;;;;;19.60;41.05;100380.98;1715914;83;27529;-64
2023/05/02 11:32:52;;;;;;;6.42;4.87;;;;;;;19.38;41.41;100390.81;1713441;83;25614;-62
2023/05/02 11:35:30;;;;;;;8.08;4.47;;;;;;;19.19;41.64;100384.03;1684839;85;25231;-62
2023/05/02 11:38:06;;;;;;;5.35;4.50;;;;;;;19.00;42.30;100402.66;1749392;82;25660;-61
2023/05/02 11:40:33;;;;;;;8.20;4.53;;;;;;;18.85;44.34;100413.37;1748746;82;25316;-62
2023/05/02 11:43:15;;;;;;;7.62;4.35;;;;;;;18.56;45.41;100420.20;1749218;82;27358;-62
2023/05/02 11:45:43;;;;;;;7.40;5.22;;;;;;;18.26;46.56;100424.06;1749357;82;25413;-61
2023/05/02 11:48:18;;;;;;;8.33;5.58;;;;;;;17.96;47.74;100429.25;1755073;77;25385;-63
2023/05/02 11:50:53;;;;;;;8.18;5.87;;;;;;;17.73;48.37;100438.08;1851004;77;25473;-62
2023/05/02 11:53:24;;;;;;;11.20;7.17;;;;;;;17.53;49.87;100442.07;1820464;77;25520;-64
2023/05/02 11:56:04;;;;;;;9.60;7.20;;;;;;;17.34;50.54;100449.60;1851065;77;27391;-63
2023/05/02 11:58:32;;;;;;;10.78;7.80;;;;;;;17.14;52.01;100447.31;1851015;77;25418;-62
2023/05/02 12:01:15;;;;;;;10.82;8.30;;;;;;;17.03;53.47;100450.34;1820884;77;25411;-63
2023/05/02 12:03:44;;;;;;;11.75;8.40;;;;;;;17.07;55.28;100447.71;1851041;77;25480;-63
2023/05/02 12:06:17;;;;;;;11.12;8.33;;;;;;;17.13;55.85;100451.21;1851200;77;25433;-63
2023/05/02 12:08:45;;;;;;;10.55;8.83;;;;;;;17.17;56.24;100458.92;1851100;77;27356;-64
2023/05/02 12:11:15;;;;;;;11.90;8.90;;;;;;;17.23;55.81;100460.84;1850880;77;25406;-59
2023/05/02 12:13:50;;;;;;;10.48;8.90;;;;;;;17.27;56.32;100458.20;1851065;77;25287;-63
2023/05/02 12:16:19;;;;;;;11.85;8.18;;;;;;;17.36;55.81;100453.36;1851008;77;25503;-62
2023/05/02 12:18:48;;;;;;;11.13;8.30;;;;;;;17.50;56.75;100457.84;1851315;77;25300;-64
2023/05/02 12:21:17;;;;;;;14.73;8.18;;;;;;;17.55;55.57;100455.39;1851041;77;27410;-63
2023/05/02 12:23:45;;;;;;;14.28;8.20;;;;;;;17.69;55.53;100452.22;1851108;77;25335;-63
2023/05/02 12:26:21;;;;;;;14.37;8.40;;;;;;;17.78;55.42;100453.44;1851293;77;25297;-62
2023/05/02 12:28:54;;;;;;;13.72;8.53;;;;;;;17.87;54.89;100460.91;1851023;77;25587;-62
2023/05/02 12:31:23;;;;;;;13.32;9.40;;;;;;;17.97;54.45;100465.84;1851070;77;25437;-62
2023/05/02 12:33:54;;;;;;;13.58;8.70;;;;;;;18.07;54.11;100464.51;1851186;77;27368;-62
2023/05/02 12:36:21;;;;;;;15.13;9.30;;;;;;;18.22;54.68;100458.80;1850939;77;25901;-65
2023/05/02 12:38:55;;;;;;;15.45;9.90;;;;;;;18.67;54.19;100458.19;1851064;77;25326;-63